Time;durP1;ratioP1;P1;durP2;ratioP2;P2;SDS_P1;SDS_P2;PMS_P1;PMS_P2;Temp;Humidity;BMP_temperature;BMP_pressure;BME280_temperature;BME280_humidity;BME280_pressure;Samples;Min_cycle;Max_cycle;Signal;HPM_P1;HPM_P2
2023/09/08 00:02:55;;;;;;;19.10;10.65;;;;;;;-147.65;100.00;57646.63;10425427;28;20036;-76
2023/09/08 00:07:56;;;;;;;13.30;9.80;;;;;;;-147.65;100.00;57646.63;10431982;28;20033;-76
2023/09/08 00:12:56;;;;;;;16.33;10.38;;;;;;;-147.65;100.00;57646.63;10434669;28;20148;-76
2023/09/08 00:17:57;;;;;;;15.27;11.02;;;;;;;-147.65;100.00;57646.63;10496629;28;20033;-76
2023/09/08 00:22:57;;;;;;;20.92;9.45;;;;;;;-147.65;100.00;57646.63;10457953;28;20043;-76
2023/09/08 00:27:58;;;;;;;13.73;9.32;;;;;;;-147.65;100.00;57646.63;10455791;28;20037;-75
2023/09/08 00:32:58;;;;;;;12.75;10.25;;;;;;;-147.65;100.00;57646.63;10440484;28;20409;-79
2023/09/08 00:37:59;;;;;;;13.68;9.82;;;;;;;-147.65;100.00;57646.63;10440656;28;20052;-76
2023/09/08 00:42:59;;;;;;;14.10;11.82;;;;;;;-147.65;100.00;57646.63;10439811;28;20404;-76
2023/09/08 00:48:00;;;;;;;15.63;11.02;;;;;;;-147.65;100.00;57646.63;10468338;28;20051;-76
2023/09/08 00:53:00;;;;;;;15.50;10.80;;;;;;;-147.65;100.00;57646.63;10438445;28;20134;-76
2023/09/08 00:58:01;;;;;;;13.00;10.52;;;;;;;-147.65;100.00;57646.63;10436849;28;20034;-76
2023/09/08 01:03:02;;;;;;;12.25;10.68;;;;;;;-147.65;100.00;57646.63;10452103;28;20392;-76
2023/09/08 01:08:03;;;;;;;16.55;11.43;;;;;;;-147.65;100.00;57646.63;10442992;28;20043;-76
2023/09/08 01:13:04;;;;;;;13.68;12.20;;;;;;;-147.65;100.00;57646.63;10478117;28;20041;-75
2023/09/08 01:18:04;;;;;;;13.73;11.55;;;;;;;-147.65;100.00;57646.63;10445880;28;20033;-76
2023/09/08 01:23:44;;;;;;;21.25;13.18;;;;;;;-147.65;100.00;57646.63;10457718;28;20038;-76
2023/09/08 01:28:45;;;;;;;18.00;11.52;;;;;;;-147.65;100.00;57646.63;10440318;28;20107;-76
2023/09/08 01:33:46;;;;;;;17.52;11.85;;;;;;;-147.65;100.00;57646.63;10506158;27;20080;-75
2023/09/08 01:38:46;;;;;;;13.98;10.40;;;;;;;-147.65;100.00;57646.63;10460909;28;20111;-76
2023/09/08 01:43:47;;;;;;;18.23;11.32;;;;;;;-147.65;100.00;57646.63;10464121;28;20084;-76
2023/09/08 01:48:47;;;;;;;17.30;11.77;;;;;;;-147.65;100.00;57646.63;10439555;28;20037;-76
2023/09/08 01:53:48;;;;;;;15.98;11.85;;;;;;;-147.65;100.00;57646.63;10443496;28;20091;-76
2023/09/08 01:58:48;;;;;;;15.10;10.57;;;;;;;-147.65;100.00;57646.63;10415349;28;20053;-75
2023/09/08 02:03:49;;;;;;;17.02;11.90;;;;;;;-147.65;100.00;57646.63;10452832;28;20037;-76
2023/09/08 02:08:49;;;;;;;17.50;12.82;;;;;;;-147.65;100.00;57646.63;10416239;28;20052;-76
2023/09/08 02:13:50;;;;;;;22.67;14.50;;;;;;;-147.65;100.00;57646.63;10417147;28;20064;-76
2023/09/08 02:18:50;;;;;;;20.40;14.63;;;;;;;-147.65;100.00;57646.63;10449985;28;20032;-76
2023/09/08 02:23:51;;;;;;;17.45;13.77;;;;;;;-147.65;100.00;57646.63;10478923;28;20037;-76
2023/09/08 02:28:51;;;;;;;17.27;13.05;;;;;;;-147.65;100.00;57646.63;10494882;28;20484;-76
2023/09/08 02:33:52;;;;;;;23.40;14.85;;;;;;;-147.65;100.00;57646.63;10443011;28;20041;-76
2023/09/08 02:38:53;;;;;;;17.52;13.00;;;;;;;-147.65;100.00;57646.63;10424186;28;20497;-75
2023/09/08 02:43:54;;;;;;;18.63;13.68;;;;;;;-147.65;100.00;57646.63;10430310;28;20029;-76
2023/09/08 02:48:54;;;;;;;22.33;14.98;;;;;;;-147.65;100.00;57646.63;10448181;28;20555;-75
2023/09/08 02:53:55;;;;;;;17.73;13.35;;;;;;;-147.65;100.00;57646.63;10459478;28;20089;-75
2023/09/08 02:58:55;;;;;;;21.75;15.00;;;;;;;-147.65;100.00;57646.63;10415432;28;20086;-75
2023/09/08 03:03:56;;;;;;;20.75;14.48;;;;;;;-147.65;100.00;57646.63;10421836;28;20592;-75
2023/09/08 03:08:58;;;;;;;18.10;13.23;;;;;;;-147.65;100.00;57646.63;10428437;28;20037;-77
2023/09/08 03:13:59;;;;;;;20.33;15.15;;;;;;;-147.65;100.00;57646.63;10444862;28;20041;-75
2023/09/08 03:18:59;;;;;;;17.52;13.82;;;;;;;-147.65;100.00;57646.63;10437987;28;20508;-76
2023/09/08 03:24:00;;;;;;;16.48;13.80;;;;;;;-147.65;100.00;57646.63;10437150;28;20421;-75
2023/09/08 03:29:00;;;;;;;17.40;13.68;;;;;;;-147.65;100.00;57646.63;10413068;28;20384;-76
2023/09/08 03:34:01;;;;;;;19.50;15.13;;;;;;;-147.65;100.00;57646.63;10428423;28;20212;-76
2023/09/08 03:39:02;;;;;;;18.88;14.27;;;;;;;-147.65;100.00;57646.63;10427198;28;20052;-76
2023/09/08 03:44:03;;;;;;;19.83;15.07;;;;;;;-147.65;100.00;57646.63;10443258;28;20048;-76
2023/09/08 03:49:04;;;;;;;20.80;14.52;;;;;;;-147.65;100.00;57646.63;10433344;28;20345;-75
2023/09/08 03:54:05;;;;;;;22.42;15.35;;;;;;;-147.65;100.00;57646.63;10431393;28;20042;-77
2023/09/08 03:59:06;;;;;;;22.35;14.23;;;;;;;-147.65;100.00;57646.63;10427516;28;20497;-76
2023/09/08 04:04:07;;;;;;;22.80;15.77;;;;;;;-147.65;100.00;57646.63;10415494;28;20037;-76
2023/09/08 04:09:07;;;;;;;23.90;15.25;;;;;;;-147.65;100.00;57646.63;10426638;28;20530;-77
2023/09/08 04:14:08;;;;;;;22.00;15.20;;;;;;;-147.65;100.00;57646.63;10447209;28;20098;-75
2023/09/08 04:19:08;;;;;;;20.77;16.98;;;;;;;-147.65;100.00;57646.63;10435341;28;20037;-75
2023/09/08 04:24:10;;;;;;;21.05;14.65;;;;;;;-147.65;100.00;57646.63;10419227;28;20057;-75
2023/09/08 04:29:10;;;;;;;17.73;14.02;;;;;;;-147.65;100.00;57646.63;10396507;28;20132;-75
2023/09/08 04:34:11;;;;;;;18.35;13.70;;;;;;;-147.65;100.00;57646.63;10402577;28;20041;-76
2023/09/08 04:39:11;;;;;;;18.23;14.68;;;;;;;-147.65;100.00;57646.63;10406380;28;20052;-75
2023/09/08 04:44:12;;;;;;;23.42;15.82;;;;;;;-147.65;100.00;57646.63;10445925;28;20040;-75
2023/09/08 04:49:13;;;;;;;18.48;15.15;;;;;;;-147.65;100.00;57646.63;10437246;28;20437;-75
2023/09/08 04:54:14;;;;;;;20.65;14.82;;;;;;;-147.65;100.00;57646.63;10409083;28;20129;-75
2023/09/08 04:59:14;;;;;;;20.55;15.32;;;;;;;-147.65;100.00;57646.63;10437606;28;20049;-80
2023/09/08 05:04:17;;;;;;;20.55;15.00;;;;;;;-147.65;100.00;57646.63;10403345;28;20036;-74
2023/09/08 05:09:17;;;;;;;20.17;15.05;;;;;;;-147.65;100.00;57646.63;10454182;28;20136;-74
2023/09/08 05:14:18;;;;;;;22.38;16.58;;;;;;;-147.65;100.00;57646.63;10439163;28;20044;-75
2023/09/08 05:19:22;;;;;;;21.52;16.42;;;;;;;-147.65;100.00;57646.63;10444995;28;20041;-76
2023/09/08 05:24:22;;;;;;;24.73;18.27;;;;;;;-147.65;100.00;57646.63;10404735;28;20041;-76
2023/09/08 05:29:23;;;;;;;26.77;19.38;;;;;;;-147.65;100.00;57646.63;10406671;28;20482;-75
2023/09/08 05:34:24;;;;;;;25.35;18.00;;;;;;;-147.65;100.00;57646.63;10484296;28;20111;-75
2023/09/08 05:39:24;;;;;;;22.42;16.63;;;;;;;-147.65;100.00;57646.63;10483265;28;20051;-75
2023/09/08 05:44:25;;;;;;;22.88;17.25;;;;;;;-147.65;100.00;57646.63;10462282;28;20044;-75
2023/09/08 05:49:25;;;;;;;19.95;16.15;;;;;;;-147.65;100.00;57646.63;10489561;28;20401;-76
2023/09/08 05:54:26;;;;;;;26.38;17.58;;;;;;;-147.65;100.00;57646.63;10473093;28;20033;-76
2023/09/08 05:59:26;;;;;;;21.20;15.85;;;;;;;-147.65;100.00;57646.63;10447759;28;20045;-75
2023/09/08 06:04:27;;;;;;;20.35;13.15;;;;;;;-147.65;100.00;57646.63;10442264;28;20089;-76
2023/09/08 06:09:28;;;;;;;11.85;9.30;;;;;;;-147.65;100.00;57646.63;10467149;28;20111;-76
2023/09/08 06:14:28;;;;;;;18.13;9.00;;;;;;;-147.65;100.00;57646.63;10455532;28;20060;-76
2023/09/08 06:19:29;;;;;;;12.27;7.70;;;;;;;-147.65;100.00;57646.63;10471179;28;20119;-76
2023/09/08 06:24:29;;;;;;;12.13;7.33;;;;;;;-147.65;100.00;57646.63;10487727;28;20044;-76
2023/09/08 06:29:30;;;;;;;10.83;5.87;;;;;;;-147.65;100.00;57646.63;10487613;28;20063;-76
2023/09/08 06:34:30;;;;;;;10.47;6.20;;;;;;;-147.65;100.00;57646.63;10486664;28;20060;-76
2023/09/08 06:39:31;;;;;;;8.07;5.70;;;;;;;-147.65;100.00;57646.63;10488097;28;20050;-76
2023/09/08 06:44:31;;;;;;;9.07;5.50;;;;;;;-147.65;100.00;57646.63;10487017;28;20049;-77
2023/09/08 06:49:32;;;;;;;11.27;6.27;;;;;;;-147.65;100.00;57646.63;10448836;28;20064;-76
2023/09/08 06:54:32;;;;;;;9.20;6.93;;;;;;;-147.65;100.00;57646.63;10445370;28;20131;-77
2023/09/08 06:59:33;;;;;;;8.53;6.83;;;;;;;-147.65;100.00;57646.63;10455247;28;22190;-76
2023/09/08 07:04:33;;;;;;;7.60;5.23;;;;;;;-147.65;100.00;57646.63;10476932;28;20144;-76
2023/09/08 07:09:35;;;;;;;10.23;6.70;;;;;;;-147.65;100.00;57646.63;10486732;28;20060;-76
2023/09/08 07:14:36;;;;;;;10.13;7.03;;;;;;;-147.65;100.00;57646.63;10519274;28;20499;-76
2023/09/08 07:19:36;;;;;;;7.40;5.20;;;;;;;-147.65;100.00;57646.63;10484114;28;20046;-76
2023/09/08 07:24:37;;;;;;;8.73;5.93;;;;;;;-147.65;100.00;57646.63;10420506;28;20099;-77
2023/09/08 07:29:37;;;;;;;7.60;5.97;;;;;;;-147.65;100.00;57646.63;10402051;28;20056;-77
2023/09/08 07:34:38;;;;;;;13.43;5.47;;;;;;;-147.65;100.00;57646.63;10423605;28;20045;-78
2023/09/08 07:39:38;;;;;;;7.32;6.25;;;;;;;-147.65;100.00;57646.63;10442166;28;20043;-76
2023/09/08 07:44:39;;;;;;;9.15;7.45;;;;;;;-147.65;100.00;57646.63;10447562;28;20047;-76
2023/09/08 07:49:45;;;;;;;10.40;7.18;;;;;;;-147.65;100.00;57646.63;10443538;28;20032;-76
2023/09/08 07:54:45;;;;;;;16.27;6.85;;;;;;;-147.65;100.00;57646.63;10443297;28;20497;-76
2023/09/08 07:59:46;;;;;;;9.38;7.57;;;;;;;-147.65;100.00;57646.63;10444023;28;20037;-76
2023/09/08 08:04:46;;;;;;;8.80;6.07;;;;;;;-147.65;100.00;57646.63;10442994;28;20475;-76
2023/09/08 08:09:47;;;;;;;9.75;7.65;;;;;;;-147.65;100.00;57646.63;10425331;28;20037;-76
2023/09/08 08:14:47;;;;;;;7.22;6.13;;;;;;;-147.65;100.00;57646.63;10443031;28;20029;-76
2023/09/08 08:19:48;;;;;;;7.85;5.90;;;;;;;-147.65;100.00;57646.63;10417123;28;20340;-77
2023/09/08 08:24:48;;;;;;;10.73;5.50;;;;;;;-147.65;100.00;57646.63;10440971;28;20485;-77
2023/09/08 08:29:50;;;;;;;8.95;5.80;;;;;;;-147.65;100.00;57646.63;10476330;28;20056;-78
2023/09/08 08:34:51;;;;;;;9.05;5.63;;;;;;;-147.65;100.00;57646.63;10515751;28;20127;-78
2023/09/08 08:39:52;;;;;;;7.55;5.30;;;;;;;-147.65;100.00;57646.63;10464639;28;20488;-78
2023/09/08 08:44:53;;;;;;;10.02;4.97;;;;;;;-147.65;100.00;57646.63;10469154;28;20044;-79
2023/09/08 08:49:54;;;;;;;8.80;6.88;;;;;;;-147.65;100.00;57646.63;10482165;28;20117;-76
2023/09/08 08:54:55;;;;;;;8.88;6.28;;;;;;;-147.65;100.00;57646.63;10482903;28;20044;-77
2023/09/08 08:59:55;;;;;;;6.82;4.95;;;;;;;-147.65;100.00;57646.63;10466048;28;20045;-76
2023/09/08 09:04:56;;;;;;;7.28;4.85;;;;;;;-147.65;100.00;57646.63;10439269;28;20397;-76
2023/09/08 09:09:56;;;;;;;6.55;5.85;;;;;;;-147.65;100.00;57646.63;10471964;28;20041;-77
2023/09/08 09:14:58;;;;;;;7.97;5.97;;;;;;;-147.65;100.00;57646.63;10515956;28;20033;-76
2023/09/08 09:20:20;;;;;;;11.43;6.22;;;;;;;-147.65;100.00;57646.63;10467471;28;20063;-76
2023/09/08 09:25:27;;;;;;;9.50;5.47;;;;;;;-147.65;100.00;57646.63;10439476;28;20120;-76
2023/09/08 09:30:46;;;;;;;8.98;6.03;;;;;;;-147.65;100.00;57646.63;10490049;28;20036;-77
2023/09/08 09:35:49;;;;;;;10.15;5.80;;;;;;;-147.65;100.00;57646.63;10498850;28;20032;-78
2023/09/08 09:40:50;;;;;;;13.60;5.82;;;;;;;-147.65;100.00;57646.63;10482191;28;20103;-76
2023/09/08 09:45:50;;;;;;;9.43;6.35;;;;;;;-147.65;100.00;57646.63;10473712;28;20184;-76
2023/09/08 09:50:51;;;;;;;15.20;11.23;;;;;;;-147.65;100.00;57646.63;10480488;28;20120;-79
2023/09/08 09:55:51;;;;;;;11.65;6.45;;;;;;;-147.65;100.00;57646.63;10463127;28;20075;-77
2023/09/08 10:00:52;;;;;;;9.77;5.18;;;;;;;-147.65;100.00;57646.63;10482973;28;20131;-77
2023/09/08 10:05:52;;;;;;;7.60;5.22;;;;;;;-147.65;100.00;57646.63;10487318;28;20036;-76
2023/09/08 10:10:54;;;;;;;8.73;5.82;;;;;;;-147.65;100.00;57646.63;10454801;28;20127;-78
2023/09/08 10:15:57;;;;;;;9.48;5.40;;;;;;;-147.65;100.00;57646.63;10452388;28;20047;-81
2023/09/08 10:20:59;;;;;;;7.10;5.15;;;;;;;-147.65;100.00;57646.63;10467362;28;20119;-78
2023/09/08 10:26:04;;;;;;;7.93;5.03;;;;;;;-147.65;100.00;57646.63;10504154;28;20067;-78
2023/09/08 10:31:05;;;;;;;9.43;6.35;;;;;;;-147.65;100.00;57646.63;10470955;28;20061;-79
2023/09/08 10:36:05;;;;;;;12.25;5.43;;;;;;;-147.65;100.00;57646.63;10452972;28;20051;-78
2023/09/08 10:41:15;;;;;;;9.65;5.82;;;;;;;-147.65;100.00;57646.63;10513291;28;20560;-78
2023/09/08 10:46:23;;;;;;;8.45;5.85;;;;;;;-147.65;100.00;57646.63;10447129;28;20041;-78
2023/09/08 10:51:23;;;;;;;10.18;5.47;;;;;;;-147.65;100.00;57646.63;10434207;28;20044;-77
2023/09/08 10:56:56;;;;;;;6.70;5.47;;;;;;;-147.65;100.00;57646.63;10444568;28;20504;-78
2023/09/08 11:01:56;;;;;;;8.25;4.93;;;;;;;-147.65;100.00;57646.63;10462184;28;20060;-78
2023/09/08 11:06:57;;;;;;;9.02;5.13;;;;;;;-147.65;100.00;57646.63;10427576;28;20124;-79
2023/09/08 11:12:02;;;;;;;7.38;4.55;;;;;;;-147.65;100.00;57646.63;10450280;28;20037;-80
2023/09/08 11:17:04;;;;;;;9.77;5.28;;;;;;;-147.65;100.00;57646.63;10482946;28;20052;-79
2023/09/08 11:22:05;;;;;;;6.47;5.43;;;;;;;-147.65;100.00;57646.63;10451549;28;20505;-80
2023/09/08 11:27:05;;;;;;;7.25;4.93;;;;;;;-147.65;100.00;57646.63;10442010;28;20039;-79
2023/09/08 11:32:07;;;;;;;7.35;5.15;;;;;;;-147.65;100.00;57646.63;10425845;28;20140;-79
2023/09/08 11:37:13;;;;;;;8.77;5.22;;;;;;;-147.65;100.00;57646.63;10443827;28;20401;-79
2023/09/08 11:42:14;;;;;;;5.88;4.22;;;;;;;-147.65;100.00;57646.63;10461821;28;20550;-79
2023/09/08 11:47:15;;;;;;;6.57;4.40;;;;;;;-147.65;100.00;57646.63;10467311;28;20033;-80
2023/09/08 11:52:16;;;;;;;7.50;5.10;;;;;;;-147.65;100.00;57646.63;10452001;28;20071;-80
2023/09/08 11:57:17;;;;;;;6.65;5.38;;;;;;;-147.65;100.00;57646.63;10448367;28;20438;-80
2023/09/08 12:02:17;;;;;;;10.30;5.68;;;;;;;-147.65;100.00;57646.63;10455084;28;20076;-79
2023/09/08 12:07:19;;;;;;;6.53;5.32;;;;;;;-147.65;100.00;57646.63;10447399;28;20542;-80
2023/09/08 12:12:20;;;;;;;8.05;5.40;;;;;;;-147.65;100.00;57646.63;10446328;28;20040;-80
2023/09/08 12:17:24;;;;;;;5.35;4.50;;;;;;;-147.65;100.00;57646.63;10423614;28;20524;-80
2023/09/08 12:22:24;;;;;;;8.13;4.75;;;;;;;-147.65;100.00;57646.63;10462305;28;20037;-80
2023/09/08 12:27:25;;;;;;;9.63;5.70;;;;;;;-147.65;100.00;57646.63;10444612;28;20044;-80
2023/09/08 12:32:26;;;;;;;6.95;4.68;;;;;;;-147.65;100.00;57646.63;10430349;28;20042;-80
2023/09/08 12:37:31;;;;;;;7.45;4.80;;;;;;;-147.65;100.00;57646.63;10413315;28;20033;-80
2023/09/08 12:42:31;;;;;;;7.15;5.28;;;;;;;-147.65;100.00;57646.63;10425368;28;20506;-80
2023/09/08 12:47:32;;;;;;;9.85;5.15;;;;;;;-147.65;100.00;57646.63;10430044;28;20086;-80
2023/09/08 12:52:33;;;;;;;9.85;5.40;;;;;;;-147.65;100.00;57646.63;10424261;28;20049;-79
2023/09/08 12:57:34;;;;;;;6.55;4.78;;;;;;;-147.65;100.00;57646.63;10428998;28;20413;-77
2023/09/08 13:02:35;;;;;;;5.85;4.78;;;;;;;-147.65;100.00;57646.63;10431204;28;20044;-78
2023/09/08 13:07:35;;;;;;;7.00;5.30;;;;;;;-147.65;100.00;57646.63;10427006;28;20041;-80
2023/09/08 13:12:36;;;;;;;8.15;4.85;;;;;;;-147.65;100.00;57646.63;10435163;28;20125;-79
2023/09/08 13:17:36;;;;;;;6.47;4.88;;;;;;;-147.65;100.00;57646.63;10429101;28;20063;-80
2023/09/08 13:22:37;;;;;;;5.00;4.30;;;;;;;-147.65;100.00;57646.63;10465580;28;20037;-79
2023/09/08 13:27:40;;;;;;;10.55;4.97;;;;;;;-147.65;100.00;57646.63;10434232;28;20059;-79
2023/09/08 13:32:40;;;;;;;7.13;5.10;;;;;;;-147.65;100.00;57646.63;10427958;28;20484;-79
2023/09/08 13:37:42;;;;;;;7.40;5.32;;;;;;;-147.65;100.00;57646.63;10433887;28;20036;-80
2023/09/08 13:42:42;;;;;;;6.72;4.47;;;;;;;-147.65;100.00;57646.63;10432449;28;20099;-79
2023/09/08 13:47:43;;;;;;;6.03;4.88;;;;;;;-147.65;100.00;57646.63;10455132;28;20183;-79
2023/09/08 13:52:43;;;;;;;7.80;4.90;;;;;;;-147.65;100.00;57646.63;10481293;28;20451;-78
2023/09/08 13:57:44;;;;;;;8.70;5.32;;;;;;;-147.65;100.00;57646.63;10437201;28;20412;-78
2023/09/08 14:02:44;;;;;;;7.70;4.90;;;;;;;-147.65;100.00;57646.63;10430956;28;20439;-78
2023/09/08 14:07:45;;;;;;;9.52;4.85;;;;;;;-147.65;100.00;57646.63;10423985;28;20132;-81
2023/09/08 14:12:45;;;;;;;6.57;4.60;;;;;;;-147.65;100.00;57646.63;10447739;28;20124;-78
2023/09/08 14:17:46;;;;;;;8.55;5.38;;;;;;;-147.65;100.00;57646.63;10433120;28;20036;-78
2023/09/08 14:22:46;;;;;;;6.75;4.40;;;;;;;-147.65;100.00;57646.63;10445532;28;20045;-79
2023/09/08 14:27:47;;;;;;;7.28;5.30;;;;;;;-147.65;100.00;57646.63;10413632;28;20040;-78
2023/09/08 14:32:48;;;;;;;9.68;4.97;;;;;;;-147.65;100.00;57646.63;10491372;28;20411;-78
2023/09/08 14:37:48;;;;;;;22.02;5.80;;;;;;;-147.65;100.00;57646.63;10435316;28;20466;-77
2023/09/08 14:42:49;;;;;;;13.82;5.53;;;;;;;-147.65;100.00;57646.63;10403448;28;20382;-78
2023/09/08 14:47:49;;;;;;;8.20;5.45;;;;;;;-147.65;100.00;57646.63;10405623;28;20112;-78
2023/09/08 14:52:50;;;;;;;8.68;5.65;;;;;;;-147.65;100.00;57646.63;10404717;28;20566;-78
2023/09/08 14:57:50;;;;;;;7.15;5.72;;;;;;;-147.65;100.00;57646.63;10405096;28;20110;-79
2023/09/08 15:02:51;;;;;;;7.05;5.20;;;;;;;-147.65;100.00;57646.63;10362269;28;20034;-78
2023/09/08 15:07:51;;;;;;;11.98;5.72;;;;;;;-147.65;100.00;57646.63;10370230;28;20429;-78
2023/09/08 15:12:52;;;;;;;7.68;4.95;;;;;;;-147.65;100.00;57646.63;10364071;28;20030;-78
2023/09/08 15:17:53;;;;;;;7.60;5.80;;;;;;;-147.65;100.00;57646.63;10345199;28;20041;-78
2023/09/08 15:22:53;;;;;;;9.43;5.95;;;;;;;-147.65;100.00;57646.63;10431322;28;20044;-78
2023/09/08 15:27:54;;;;;;;8.07;5.45;;;;;;;-147.65;100.00;57646.63;10459201;28;20042;-78
2023/09/08 15:32:55;;;;;;;11.60;6.35;;;;;;;-147.65;100.00;57646.63;10444373;28;20033;-78
2023/09/08 15:37:55;;;;;;;;;;;;;;;-147.65;100.00;57646.63;10459921;28;20124;-78
2023/09/08 15:42:56;;;;;;;9.37;5.67;;;;;;;-147.65;100.00;57646.63;10450727;28;19921;-78
2023/09/08 15:47:56;;;;;;;;;;;;;;;-147.65;100.00;57646.63;10419144;28;20393;-78
2023/09/08 15:52:56;;;;;;;8.57;5.60;;;;;;;-147.65;100.00;57646.63;10440974;28;19927;-78
2023/09/08 15:57:57;;;;;;;7.87;6.10;;;;;;;-147.65;100.00;57646.63;10430387;28;20280;-78
2023/09/08 16:02:58;;;;;;;8.10;6.10;;;;;;;-147.65;100.00;57646.63;10435447;28;20422;-78
2023/09/08 16:07:58;;;;;;;6.27;5.43;;;;;;;-147.65;100.00;57646.63;10401841;28;20291;-78
2023/09/08 16:13:00;;;;;;;8.73;5.80;;;;;;;-147.65;100.00;57646.63;10433511;28;20048;-77
2023/09/08 16:18:00;;;;;;;11.10;6.38;;;;;;;-147.65;100.00;57646.63;10419623;28;20430;-78
2023/09/08 16:23:03;;;;;;;8.70;7.27;;;;;;;-147.65;100.00;57646.63;10441387;28;20029;-78
2023/09/08 16:28:04;;;;;;;8.82;6.95;;;;;;;-147.65;100.00;57646.63;10442740;28;20037;-78
2023/09/08 16:33:04;;;;;;;9.18;6.97;;;;;;;-147.65;100.00;57646.63;10444769;28;20045;-77
2023/09/08 16:38:06;;;;;;;8.57;6.77;;;;;;;-147.65;100.00;57646.63;10442619;28;20037;-77
2023/09/08 16:43:06;;;;;;;;;;;;;;;-147.65;100.00;57646.63;10438450;28;20389;-77
2023/09/08 16:48:07;;;;;;;9.30;6.90;;;;;;;-147.65;100.00;57646.63;10442136;28;19957;-78
2023/09/08 16:53:26;;;;;;;9.95;7.05;;;;;;;-147.65;100.00;57646.63;10456282;28;20041;-78
2023/09/08 16:58:45;;;;;;;9.05;6.65;;;;;;;-147.65;100.00;57646.63;10459561;28;20041;-78
2023/09/08 17:04:04;;;;;;;11.18;8.13;;;;;;;-147.65;100.00;57646.63;10448953;28;20044;-78
2023/09/08 17:09:26;;;;;;;10.25;7.35;;;;;;;-147.65;100.00;57646.63;10448581;28;20132;-78
2023/09/08 17:14:45;;;;;;;9.63;7.95;;;;;;;-147.65;100.00;57646.63;10471543;28;20041;-78
2023/09/08 17:20:04;;;;;;;11.05;7.70;;;;;;;-147.65;100.00;57646.63;10433085;28;20037;-77
2023/09/08 17:25:23;;;;;;;15.70;11.32;;;;;;;-147.65;100.00;57646.63;10450543;28;20033;-78
2023/09/08 17:30:43;;;;;;;11.93;9.20;;;;;;;-147.65;100.00;57646.63;10412030;28;20057;-78
2023/09/08 17:36:03;;;;;;;12.05;9.10;;;;;;;-147.65;100.00;57646.63;10449636;28;20052;-79
2023/09/08 17:41:22;;;;;;;10.70;8.52;;;;;;;-147.65;100.00;57646.63;10429475;28;20037;-78
2023/09/08 17:46:41;;;;;;;12.63;9.75;;;;;;;-147.65;100.00;57646.63;10452902;28;20487;-76
2023/09/08 17:52:00;;;;;;;14.20;10.07;;;;;;;-147.65;100.00;57646.63;10427255;28;20088;-76
2023/09/08 17:57:19;;;;;;;15.82;10.05;;;;;;;-147.65;100.00;57646.63;10418977;28;20497;-75
2023/09/08 18:02:39;;;;;;;14.68;10.68;;;;;;;-147.65;100.00;57646.63;10423288;28;20485;-76
2023/09/08 18:07:58;;;;;;;16.45;10.30;;;;;;;-147.65;100.00;57646.63;10410785;28;20033;-78
2023/09/08 18:13:18;;;;;;;11.43;9.68;;;;;;;-147.65;100.00;57646.63;10419682;28;20050;-75
2023/09/08 18:18:37;;;;;;;12.05;9.60;;;;;;;-147.65;100.00;57646.63;10453580;28;20037;-77
2023/09/08 18:23:57;;;;;;;17.58;12.45;;;;;;;-147.65;100.00;57646.63;10414777;28;20037;-76
2023/09/08 18:29:16;;;;;;;12.77;10.27;;;;;;;-147.65;100.00;57646.63;10428656;28;20049;-76
2023/09/08 18:34:35;;;;;;;19.50;13.10;;;;;;;-147.65;100.00;57646.63;10425441;28;20041;-78
2023/09/08 18:39:54;;;;;;;15.13;11.68;;;;;;;-147.65;100.00;57646.63;10450302;28;20773;-78
2023/09/08 18:45:13;;;;;;;17.08;11.18;;;;;;;-147.65;100.00;57646.63;10430971;28;20041;-76
2023/09/08 18:50:32;;;;;;;18.15;11.68;;;;;;;-147.65;100.00;57646.63;10418509;28;20029;-77
2023/09/08 18:55:52;;;;;;;20.13;11.32;;;;;;;-147.65;100.00;57646.63;10428849;28;20036;-77
2023/09/08 19:01:11;;;;;;;13.35;11.45;;;;;;;-147.65;100.00;57646.63;10440656;28;20037;-78
2023/09/08 19:06:30;;;;;;;13.02;11.15;;;;;;;-147.65;100.00;57646.63;10374643;28;20515;-77
2023/09/08 19:11:49;;;;;;;16.88;11.20;;;;;;;-147.65;100.00;57646.63;10378596;28;20053;-77
2023/09/08 19:17:08;;;;;;;14.20;10.63;;;;;;;-147.65;100.00;57646.63;10381523;28;20037;-77
2023/09/08 19:22:27;;;;;;;15.05;11.05;;;;;;;-147.65;100.00;57646.63;10342556;28;20041;-77
2023/09/08 19:27:46;;;;;;;14.68;12.80;;;;;;;-147.65;100.00;57646.63;10380514;28;20489;-77
2023/09/08 19:33:05;;;;;;;15.82;11.75;;;;;;;-147.65;100.00;57646.63;10423528;28;21952;-77
2023/09/08 19:38:24;;;;;;;15.82;11.45;;;;;;;-147.65;100.00;57646.63;10421540;28;20143;-77
2023/09/08 19:43:44;;;;;;;20.88;13.68;;;;;;;-147.65;100.00;57646.63;10402688;28;20041;-77
2023/09/08 19:49:02;;;;;;;17.58;10.48;;;;;;;-147.65;100.00;57646.63;10409407;28;20041;-78
2023/09/08 19:54:22;;;;;;;21.42;12.18;;;;;;;-147.65;100.00;57646.63;10399943;28;20172;-78
2023/09/08 19:59:41;;;;;;;18.38;13.55;;;;;;;-147.65;100.00;57646.63;10370326;28;20040;-78
2023/09/08 20:05:01;;;;;;;20.30;13.23;;;;;;;-147.65;100.00;57646.63;10390261;28;20814;-78
2023/09/08 20:10:20;;;;;;;16.00;11.63;;;;;;;-147.65;100.00;57646.63;10412848;28;20124;-78
2023/09/08 20:15:39;;;;;;;16.58;13.68;;;;;;;-147.65;100.00;57646.63;10389702;28;20501;-78
2023/09/08 20:21:01;;;;;;;15.55;13.93;;;;;;;-147.65;100.00;57646.63;10338607;28;20058;-78
2023/09/08 20:26:20;;;;;;;17.27;13.00;;;;;;;-147.65;100.00;57646.63;10374365;28;20053;-78
2023/09/08 20:31:39;;;;;;;15.55;11.95;;;;;;;-147.65;100.00;57646.63;10392437;28;20044;-78
2023/09/08 20:36:58;;;;;;;17.63;13.65;;;;;;;-147.65;100.00;57646.63;10391121;28;20489;-78
2023/09/08 20:42:17;;;;;;;19.52;14.00;;;;;;;-147.65;100.00;57646.63;10390326;28;20037;-78
2023/09/08 20:47:36;;;;;;;19.02;14.20;;;;;;;-147.65;100.00;57646.63;10387901;28;20037;-78
2023/09/08 20:52:56;;;;;;;20.27;16.38;;;;;;;-147.65;100.00;57646.63;10384627;28;20044;-78
2023/09/08 20:58:15;;;;;;;18.38;14.55;;;;;;;-147.65;100.00;57646.63;10321753;28;20042;-77
2023/09/08 21:03:35;;;;;;;27.17;18.27;;;;;;;-147.65;100.00;57646.63;10318323;28;20078;-78
2023/09/08 21:08:54;;;;;;;21.92;17.05;;;;;;;-147.65;100.00;57646.63;10309421;28;20042;-79
2023/09/08 21:14:13;;;;;;;26.25;16.45;;;;;;;-147.65;100.00;57646.63;10305008;28;20475;-78
2023/09/08 21:19:32;;;;;;;22.13;16.67;;;;;;;-147.65;100.00;57646.63;10333992;28;20038;-79
2023/09/08 21:24:52;;;;;;;20.10;17.08;;;;;;;-147.65;100.00;57646.63;10358422;28;20033;-78
2023/09/08 21:30:11;;;;;;;20.83;17.02;;;;;;;-147.65;100.00;57646.63;10352548;28;20125;-77
2023/09/08 21:35:30;;;;;;;22.40;16.80;;;;;;;-147.65;100.00;57646.63;10361967;28;20042;-77
2023/09/08 21:40:50;;;;;;;19.30;15.48;;;;;;;-147.65;100.00;57646.63;10366892;28;20086;-77
2023/09/08 21:46:09;;;;;;;21.15;17.35;;;;;;;-147.65;100.00;57646.63;10351201;28;20483;-77
2023/09/08 21:51:29;;;;;;;22.13;17.17;;;;;;;-147.65;100.00;57646.63;10379954;28;20397;-78
2023/09/08 21:56:48;;;;;;;23.80;19.17;;;;;;;-147.65;100.00;57646.63;10437574;28;20037;-78
2023/09/08 22:02:07;;;;;;;21.15;17.63;;;;;;;-147.65;100.00;57646.63;10433554;28;20052;-78
2023/09/08 22:07:27;;;;;;;22.80;18.73;;;;;;;-147.65;100.00;57646.63;10442659;28;20037;-78
2023/09/08 22:12:27;;;;;;;24.13;18.60;;;;;;;-147.65;100.00;57646.63;10445931;28;20029;-78
2023/09/08 22:17:28;;;;;;;30.83;19.25;;;;;;;-147.65;100.00;57646.63;10445565;28;20128;-77
2023/09/08 22:22:28;;;;;;;27.80;20.70;;;;;;;-147.65;100.00;57646.63;10430194;28;20037;-78
2023/09/08 22:27:29;;;;;;;21.80;17.08;;;;;;;-147.65;100.00;57646.63;10447032;28;20444;-78
2023/09/08 22:32:29;;;;;;;33.40;18.70;;;;;;;-147.65;100.00;57646.63;10432430;28;20045;-77
2023/09/08 22:37:31;;;;;;;25.27;19.63;;;;;;;-147.65;100.00;57646.63;10459798;28;20036;-77